createdAt,value
2018-09-05T00:00:41.865Z,24.2
2018-09-05T00:01:31.735Z,24.2
2018-09-05T00:02:20.590Z,24.2
2018-09-05T00:03:11.646Z,24.2
2018-09-05T00:04:01.292Z,24.2
2018-09-05T00:04:50.788Z,24.2
2018-09-05T00:05:41.642Z,24.2
2018-09-05T00:06:32.097Z,24.2
2018-09-05T00:07:21.319Z,24.2
2018-09-05T00:08:11.915Z,24.2
2018-09-05T00:09:01.682Z,24.2
2018-09-05T00:09:52.058Z,24.2
2018-09-05T00:10:41.898Z,24.2
2018-09-05T00:11:31.581Z,24.2
2018-09-05T00:12:21.623Z,24.2
2018-09-05T00:31:43.951Z,24.1
2018-09-05T00:32:34.348Z,24.2
2018-09-05T00:33:23.565Z,24.1
2018-09-05T00:34:13.652Z,24.2
2018-09-05T00:35:04.248Z,24.2
2018-09-05T00:35:53.449Z,24.2
2018-09-05T00:36:44.769Z,24.1
2018-09-05T00:37:34.421Z,24.2
2018-09-05T00:38:24.782Z,24.2
2018-09-05T00:39:14.504Z,24.2
2018-09-05T00:40:04.397Z,24.2
2018-09-05T00:40:54.110Z,24.2
2018-09-05T00:41:44.767Z,24.2
2018-09-05T00:42:34.819Z,24.2
2018-09-05T00:43:25.174Z,24.2
2018-09-05T00:44:14.955Z,24.2
2018-09-05T00:45:04.999Z,24.2
2018-09-05T00:45:54.500Z,24.2
2018-09-05T00:46:44.806Z,24.2
2018-09-05T00:47:35.454Z,24.2
2018-09-05T00:48:23.521Z,24.2
2018-09-05T00:49:14.733Z,24.1
2018-09-05T00:50:05.357Z,24.2
2018-09-05T00:50:54.291Z,24.2
2018-09-05T00:51:45.789Z,24.2
2018-09-05T00:52:35.282Z,24.2
2018-09-05T00:53:24.788Z,24.2
2018-09-05T00:54:15.127Z,24.2
2018-09-05T00:55:06.052Z,24.2
2018-09-05T00:55:56.125Z,24.2
2018-09-05T00:56:46.160Z,24.2
2018-09-05T00:57:35.899Z,24.2
2018-09-05T00:58:25.173Z,24.2
2018-09-05T00:59:16.401Z,24.2
2018-09-05T01:00:06.439Z,24.2
2018-09-05T01:00:56.266Z,24.2
2018-09-05T01:01:45.948Z,24.2
2018-09-05T01:02:36.834Z,24.2
2018-09-05T01:03:26.019Z,24.2
2018-09-05T01:04:16.354Z,24.2
2018-09-05T01:05:06.419Z,24.2
2018-09-05T01:05:56.534Z,24.2
2018-09-05T01:06:46.279Z,24.2
2018-09-05T01:07:36.862Z,24.2
2018-09-05T01:08:26.415Z,24.2
2018-09-05T01:09:17.057Z,24.2
2018-09-05T01:10:07.055Z,24.2
2018-09-05T01:10:56.877Z,24.2
2018-09-05T01:11:46.931Z,24.2
2018-09-05T01:12:36.364Z,24.2
2018-09-05T01:13:27.334Z,24.2
2018-09-05T01:14:15.989Z,24.2
2018-09-05T01:15:06.899Z,24.2
2018-09-05T01:15:56.951Z,24.2
2018-09-05T01:16:47.373Z,24.2
2018-09-05T01:17:36.541Z,24.2
2018-09-05T01:18:28.208Z,24.2
2018-09-05T01:19:17.251Z,24.2
2018-09-05T01:20:07.591Z,24.1
2018-09-05T01:20:57.626Z,24.2
2018-09-05T01:21:47.161Z,24.2
2018-09-05T01:22:38.016Z,24.1
2018-09-05T01:23:27.578Z,24.1
2018-09-05T01:24:18.303Z,24.2
2018-09-05T01:25:07.951Z,24.2
2018-09-05T01:25:58.314Z,24.2
2018-09-05T01:26:47.827Z,24.1
2018-09-05T01:27:39.660Z,24.2
2018-09-05T01:28:28.450Z,24.2
2018-09-05T01:29:18.511Z,24.2
2018-09-05T01:30:07.773Z,24.2
2018-09-05T01:30:58.095Z,24.2
2018-09-05T01:31:48.213Z,24.2
2018-09-05T01:32:39.030Z,24.2
2018-09-05T01:33:28.638Z,24.2
2018-09-05T01:34:18.636Z,24.2
2018-09-05T01:35:08.169Z,24.2
2018-09-05T01:35:59.110Z,24.2
2018-09-05T01:36:48.025Z,24.2
2018-09-05T01:37:39.230Z,24.2
2018-09-05T01:38:28.395Z,24.2
2018-09-05T01:39:19.527Z,24.2
2018-09-05T01:40:09.412Z,24.2
2018-09-05T01:40:59.190Z,24.2
2018-09-05T01:41:49.542Z,24.1
2018-09-05T01:42:39.319Z,24.2
2018-09-05T01:43:29.374Z,24.2
2018-09-05T01:44:19.495Z,24.2
2018-09-05T01:45:08.692Z,24.2
2018-09-05T01:45:58.989Z,24.2
2018-09-05T01:46:49.906Z,24.2
2018-09-05T01:47:39.981Z,24.2
2018-09-05T01:48:30.015Z,24.2
2018-09-05T01:49:19.811Z,24.2
2018-09-05T01:50:09.604Z,24.2
2018-09-05T01:50:59.437Z,24.2
2018-09-05T01:51:50.342Z,24.2
2018-09-05T01:52:39.819Z,24.1
2018-09-05T01:53:30.227Z,24.2
2018-09-05T01:54:20.441Z,24.2
2018-09-05T01:55:09.779Z,24.2
2018-09-05T01:55:59.839Z,24.1
2018-09-05T01:56:50.144Z,24.2
2018-09-05T01:57:39.913Z,24.2
2018-09-05T01:58:30.272Z,24.1
2018-09-05T01:59:20.591Z,24.1
2018-09-05T02:00:10.072Z,24.1
2018-09-05T02:01:00.998Z,24.2
2018-09-05T02:01:51.137Z,24.2
2018-09-05T02:02:40.858Z,24.2
2018-09-05T02:03:30.350Z,24.2
2018-09-05T02:04:21.059Z,24.2
2018-09-05T02:05:11.083Z,24.2
2018-09-05T02:06:00.269Z,24.1
2018-09-05T02:06:50.610Z,24.2
2018-09-05T02:07:40.689Z,24.1
2018-09-05T02:08:32.892Z,24.2
2018-09-05T02:09:21.390Z,24.2
2018-09-05T02:10:11.755Z,24.2
2018-09-05T02:11:01.279Z,24.1
2018-09-05T02:11:51.280Z,24.1
2018-09-05T02:12:41.347Z,24.2
2018-09-05T02:13:31.162Z,24.2
2018-09-05T02:14:21.190Z,24.1
2018-09-05T02:15:12.055Z,24.2
2018-09-05T02:16:01.885Z,24.2
2018-09-05T02:16:51.993Z,24.2
2018-09-05T02:17:41.169Z,24.2
2018-09-05T02:18:31.535Z,24.2
2018-09-05T02:19:22.202Z,24.2
2018-09-05T02:20:12.184Z,24.2
2018-09-05T02:21:02.327Z,24.2
2018-09-05T02:21:52.411Z,24.2
2018-09-05T02:22:42.133Z,24.2
2018-09-05T02:23:32.187Z,24.2
2018-09-05T02:24:22.248Z,24.2
2018-09-05T02:25:13.377Z,24.1
2018-09-05T02:26:02.378Z,24.2
2018-09-05T02:26:53.044Z,24.1
2018-09-05T02:27:43.031Z,24.2
2018-09-05T02:28:33.139Z,24.2
2018-09-05T02:29:23.141Z,24.2
2018-09-05T02:30:13.211Z,24.1
2018-09-05T02:31:03.354Z,24.2
2018-09-05T02:31:52.587Z,24.1
2018-09-05T02:32:43.151Z,24.2
2018-09-05T02:33:33.341Z,24.2
2018-09-05T02:34:23.016Z,24.1
2018-09-05T02:35:13.113Z,24.1
2018-09-05T02:36:03.718Z,24.1
2018-09-05T02:36:53.732Z,24.2
2018-09-05T02:37:43.570Z,24.2
2018-09-05T02:38:33.343Z,24.1
2018-09-05T02:39:23.719Z,24.1
2018-09-05T02:40:14.147Z,24.2
2018-09-05T02:41:03.586Z,24.1
2018-09-05T02:41:53.888Z,24.1
2018-09-05T02:42:43.966Z,24.1
2018-09-05T02:43:34.112Z,24.1
2018-09-05T02:44:24.126Z,24.1
2018-09-05T02:45:14.376Z,24.2
2018-09-05T02:46:04.428Z,24.1
2018-09-05T02:46:54.240Z,24.1
2018-09-05T02:47:44.596Z,24.1
2018-09-05T02:48:33.838Z,24.1
2018-09-05T02:49:24.787Z,24.2
2018-09-05T02:50:15.073Z,24.1
2018-09-05T02:51:04.557Z,24.1
2018-09-05T02:51:54.128Z,24.1
2018-09-05T02:52:44.460Z,24.1
2018-09-05T02:53:34.787Z,24.2
2018-09-05T02:54:24.840Z,24.2
2018-09-05T02:55:14.107Z,24.1
2018-09-05T02:56:05.150Z,24.1
2018-09-05T02:56:55.025Z,24.1
2018-09-05T02:57:45.417Z,24.2
2018-09-05T02:58:34.394Z,24.1
2018-09-05T02:59:24.953Z,24.1
2018-09-05T03:00:15.042Z,24.1
2018-09-05T03:01:05.032Z,24.1
2018-09-05T03:01:55.125Z,24.1
2018-09-05T03:02:45.231Z,24.1
2018-09-05T03:03:35.555Z,24.2
2018-09-05T03:04:25.323Z,24.1
2018-09-05T03:05:15.982Z,24.1
2018-09-05T03:06:06.012Z,24.1
2018-09-05T03:06:55.905Z,24.1
2018-09-05T03:07:46.121Z,24.1
2018-09-05T03:08:35.636Z,24.1
2018-09-05T03:09:26.833Z,24.1
2018-09-05T03:10:15.518Z,24.1
2018-09-05T03:11:06.126Z,24.1
2018-09-05T03:11:55.998Z,24.1
2018-09-05T03:12:46.509Z,24.1
2018-09-05T03:13:36.626Z,24.1
2018-09-05T03:14:26.126Z,24.1
2018-09-05T03:15:16.471Z,24.1
2018-09-05T03:16:06.223Z,24.1
2018-09-05T03:16:56.545Z,24.1
2018-09-05T03:17:45.791Z,24.1
2018-09-05T03:18:36.440Z,24.1
2018-09-05T03:19:27.062Z,24.1
2018-09-05T03:20:16.840Z,24.1
2018-09-05T03:21:07.218Z,24.1
2018-09-05T03:21:56.995Z,24.1
2018-09-05T03:22:46.546Z,24.1
2018-09-05T03:23:37.161Z,24.1
2018-09-05T03:24:26.626Z,24.1
2018-09-05T03:25:17.955Z,24.1
2018-09-05T03:26:07.315Z,24.1
2018-09-05T03:26:57.077Z,24.1
2018-09-05T03:27:47.465Z,24.1
2018-09-05T03:28:37.210Z,24.1
2018-09-05T03:29:27.290Z,24.1
2018-09-05T03:30:18.218Z,24.1
2018-09-05T03:31:07.456Z,24.1
2018-09-05T03:31:58.120Z,24.1
2018-09-05T03:32:48.302Z,24.1
2018-09-05T03:33:37.901Z,24.1
2018-09-05T03:34:27.645Z,24.1
2018-09-05T03:35:18.334Z,24.1
2018-09-05T03:36:08.050Z,24.1
2018-09-05T03:36:58.142Z,24.1
2018-09-05T03:37:48.172Z,24.1
2018-09-05T03:38:38.242Z,24.1
2018-09-05T03:39:27.749Z,24.1
2018-09-05T03:40:17.796Z,24.1
2018-09-05T03:41:08.934Z,24.1
2018-09-05T03:41:57.635Z,24.1
2018-09-05T03:42:48.294Z,24.1
2018-09-05T03:43:38.910Z,24.1
2018-09-05T03:44:29.001Z,24.1
2018-09-05T03:45:17.961Z,24.1
2018-09-05T03:46:09.333Z,24.1
2018-09-05T03:46:59.776Z,24.1
2018-09-05T03:47:49.728Z,24.1
2018-09-05T03:48:39.456Z,24.1
2018-09-05T03:49:29.528Z,24.1
2018-09-05T03:50:19.874Z,24.1
2018-09-05T03:51:09.583Z,24.1
2018-09-05T03:51:59.331Z,24.1
2018-09-05T03:52:48.788Z,24.1
2018-09-05T03:53:39.424Z,24.1
2018-09-05T03:54:29.536Z,24.1
2018-09-05T03:55:19.624Z,24.1
2018-09-05T03:56:09.909Z,24.1
2018-09-05T03:56:59.959Z,24.1
2018-09-05T03:57:49.773Z,24.1
2018-09-05T03:58:40.081Z,24.1
2018-09-05T03:59:30.163Z,24.1
2018-09-05T04:00:20.449Z,24.1
2018-09-05T04:01:10.523Z,24.1
2018-09-05T04:02:00.079Z,24.1
2018-09-05T04:02:50.365Z,24.1
2018-09-05T04:03:40.444Z,24.1
2018-09-05T04:04:29.756Z,24.1
2018-09-05T04:05:20.909Z,24.1
2018-09-05T04:06:10.434Z,24.1
2018-09-05T04:07:00.801Z,24.1
2018-09-05T04:07:51.003Z,24.1
2018-09-05T04:08:40.847Z,24.1
2018-09-05T04:09:30.637Z,24.1
2018-09-05T04:10:20.423Z,24.1
2018-09-05T04:11:11.046Z,24.1
2018-09-05T04:12:01.171Z,24.1
2018-09-05T04:12:51.130Z,24.1
2018-09-05T04:13:40.945Z,24.1
2018-09-05T04:14:31.041Z,24.1
2018-09-05T04:15:19.651Z,24.1
2018-09-05T04:16:10.289Z,24.1
2018-09-05T04:17:02.293Z,24.1
2018-09-05T04:17:51.307Z,24.1
2018-09-05T04:18:41.421Z,24.1
2018-09-05T04:19:30.979Z,24.1
2018-09-05T04:20:21.585Z,24.1
2018-09-05T04:21:11.628Z,24.1
2018-09-05T04:22:03.085Z,24.1
2018-09-05T04:22:52.352Z,24.1
2018-09-05T04:23:41.843Z,24.1
2018-09-05T04:24:31.555Z,24.1
2018-09-05T04:25:21.638Z,24.1
2018-09-05T04:26:12.206Z,24.1
2018-09-05T04:27:02.237Z,24.1
2018-09-05T04:27:52.396Z,24.1
2018-09-05T04:28:42.175Z,24.1
2018-09-05T04:29:33.134Z,24.1
2018-09-05T04:30:22.891Z,24.1
2018-09-05T04:31:12.113Z,24.1
2018-09-05T04:32:02.640Z,24.1
2018-09-05T04:32:52.143Z,24.1
2018-09-05T04:33:42.556Z,24.1
2018-09-05T04:34:32.572Z,24.1
2018-09-05T04:35:22.351Z,24.1
2018-09-05T04:36:12.669Z,24.1
2018-09-05T04:37:02.183Z,24.1
2018-09-05T04:37:53.112Z,24.1
2018-09-05T04:38:43.092Z,24.1
2018-09-05T04:39:32.717Z,24.1
2018-09-05T04:40:22.429Z,24.1
2018-09-05T04:41:13.066Z,24.1
2018-09-05T04:42:03.034Z,24.1
2018-09-05T04:42:52.675Z,24.1
2018-09-05T05:00:32.751Z,23.4
2018-09-05T05:01:23.408Z,23.4
2018-09-05T05:02:12.933Z,23.4
2018-09-05T05:03:03.776Z,23.4
2018-09-05T05:03:53.615Z,23.4
2018-09-05T05:04:44.063Z,23.4
2018-09-05T05:05:35.676Z,23.4
2018-09-05T05:06:23.761Z,23.4
2018-09-05T05:07:14.078Z,23.4
2018-09-05T05:08:04.173Z,23.4
2018-09-05T05:08:54.219Z,23.4
2018-09-05T05:09:43.999Z,23.4
2018-09-05T05:10:34.063Z,23.4
2018-09-05T05:11:23.775Z,23.4
2018-09-05T05:12:13.848Z,23.4
2018-09-05T05:13:04.236Z,23.4
2018-09-05T05:13:55.458Z,23.4
2018-09-05T05:14:43.860Z,23.4
2018-09-05T05:15:34.395Z,23.4
2018-09-05T05:16:24.771Z,23.4
2018-09-05T05:17:14.575Z,23.4
2018-09-05T05:18:04.129Z,23.5
2018-09-05T05:18:54.712Z,23.6
2018-09-05T05:19:45.269Z,23.6
2018-09-05T05:20:35.168Z,23.6
2018-09-05T05:21:25.098Z,23.6
2018-09-05T05:22:14.953Z,23.6
2018-09-05T05:23:04.513Z,23.7
2018-09-05T05:23:55.258Z,23.7
2018-09-05T05:24:45.716Z,23.8
2018-09-05T05:25:34.899Z,23.8
2018-09-05T05:26:25.806Z,23.8
2018-09-05T05:27:15.064Z,23.8
2018-09-05T05:28:05.689Z,23.8
2018-09-05T05:28:55.437Z,23.8
2018-09-05T05:29:45.631Z,23.9
2018-09-05T05:30:35.653Z,23.9
2018-09-05T05:31:25.235Z,23.9
2018-09-05T05:32:14.710Z,23.9
2018-09-05T05:33:05.779Z,23.9
2018-09-05T05:33:55.957Z,23.9
2018-09-05T05:34:48.598Z,23.9
2018-09-05T05:35:37.418Z,23.9
2018-09-05T05:36:26.335Z,23.9
2018-09-05T05:37:16.083Z,23.9
2018-09-05T05:38:07.806Z,23.9
2018-09-05T05:38:58.382Z,23.9
2018-09-05T05:39:48.357Z,23.9
2018-09-05T05:40:35.901Z,23.9
2018-09-05T05:41:26.929Z,23.9
2018-09-05T05:42:16.461Z,24
2018-09-05T05:43:06.234Z,23.9
2018-09-05T05:43:56.341Z,23.9
2018-09-05T05:44:46.683Z,23.9
2018-09-05T05:45:36.525Z,24
2018-09-05T05:46:26.218Z,24
2018-09-05T05:47:17.191Z,24
2018-09-05T05:48:06.626Z,24
2018-09-05T05:48:56.399Z,24
2018-09-05T05:49:47.293Z,24
2018-09-05T05:50:37.461Z,24
2018-09-05T05:51:27.195Z,24
2018-09-05T05:52:17.498Z,24
2018-09-05T05:53:07.573Z,24
2018-09-05T05:53:57.651Z,24
2018-09-05T05:54:47.708Z,24.1
2018-09-05T05:55:36.918Z,24
2018-09-05T05:56:26.983Z,24
2018-09-05T05:57:17.196Z,24.1
2018-09-05T05:58:07.405Z,24.1
2018-09-05T05:58:57.190Z,24
2018-09-05T05:59:48.100Z,24
2018-09-05T06:00:38.203Z,24.1
2018-09-05T06:01:29.001Z,24.1
2018-09-05T06:02:18.052Z,24.1
2018-09-05T06:03:08.049Z,24.1
2018-09-05T06:03:57.350Z,24.1
2018-09-05T06:04:48.437Z,24.1
2018-09-05T06:05:38.314Z,24.1
2018-09-05T06:06:31.472Z,24.1
2018-09-05T06:07:18.447Z,24.1
2018-09-05T06:08:08.451Z,24.1
2018-09-05T06:08:58.803Z,24.1
2018-09-05T06:09:48.628Z,24.1
2018-09-05T06:10:38.382Z,24.1
2018-09-05T06:11:29.265Z,24.1
2018-09-05T06:12:19.587Z,24.1
2018-09-05T06:13:09.105Z,24.1
2018-09-05T06:13:58.657Z,24.1
2018-09-05T06:14:48.694Z,24.1
2018-09-05T06:15:40.377Z,24.1
2018-09-05T06:16:28.540Z,24.1
2018-09-05T06:17:19.379Z,24.1
2018-09-05T06:18:10.170Z,24.1
2018-09-05T06:18:59.597Z,24.1
2018-09-05T06:19:49.058Z,24.1
2018-09-05T06:20:39.436Z,24.1
2018-09-05T06:21:29.222Z,24.1
2018-09-05T06:22:19.554Z,24.1
2018-09-05T06:23:09.119Z,24.1
2018-09-05T06:24:00.336Z,24.1
2018-09-05T06:24:49.506Z,24.1
2018-09-05T06:25:39.186Z,24.1
2018-09-05T06:26:29.632Z,24.1
2018-09-05T06:27:20.101Z,24.1
2018-09-05T06:28:10.577Z,24.1
2018-09-05T06:29:00.081Z,24.1
2018-09-05T06:29:50.133Z,24.1
2018-09-05T06:30:43.472Z,24.1
2018-09-05T06:31:30.239Z,24.1
2018-09-05T06:32:20.306Z,24.1
2018-09-05T06:33:10.928Z,24.1
2018-09-05T06:34:00.796Z,24.1
2018-09-05T06:34:50.251Z,24.1
2018-09-05T06:35:41.021Z,24.1
2018-09-05T06:36:30.931Z,24.1
2018-09-05T06:37:21.015Z,24.1
2018-09-05T06:38:10.424Z,24.1
2018-09-05T06:39:01.470Z,24.1
2018-09-05T06:39:51.245Z,24.1
2018-09-05T06:40:40.972Z,24.1
2018-09-05T06:41:31.326Z,24.1
2018-09-05T06:42:20.933Z,24.1
2018-09-05T06:43:11.194Z,24.1
2018-09-05T06:44:01.241Z,24.1
2018-09-05T06:44:51.453Z,24.1
2018-09-05T06:45:41.440Z,24.1
2018-09-05T06:46:31.179Z,24.1
2018-09-05T06:47:20.972Z,24.1
2018-09-05T06:48:11.630Z,24.1
2018-09-05T06:49:01.638Z,24.1
2018-09-05T06:49:51.945Z,24.1
2018-09-05T06:50:41.767Z,24.1
2018-09-05T06:51:33.885Z,24.1
2018-09-05T06:52:22.224Z,24.1
2018-09-05T06:53:11.951Z,24.1
2018-09-05T06:54:01.785Z,24.1
2018-09-05T06:54:52.129Z,24.1
2018-09-05T06:55:42.129Z,24.1
2018-09-05T06:56:32.551Z,24.1
2018-09-05T06:57:22.259Z,24.1
2018-09-05T06:58:12.947Z,24.1
2018-09-05T06:59:01.890Z,24.1
2018-09-05T06:59:52.159Z,24.1
2018-09-05T07:00:42.526Z,24.1
2018-09-05T07:01:31.527Z,24.1
2018-09-05T07:02:23.184Z,24.1
2018-09-05T07:03:12.748Z,24.1
2018-09-05T07:04:04.650Z,24.1
2018-09-05T07:04:53.118Z,24.1
2018-09-05T07:05:43.183Z,24.1
2018-09-05T07:06:33.288Z,24.1
2018-09-05T07:07:23.061Z,24.1
2018-09-05T07:08:13.121Z,24.1
2018-09-05T07:09:03.426Z,24.1
2018-09-05T07:09:54.040Z,24.1
2018-09-05T07:10:42.160Z,24.1
2018-09-05T07:11:32.806Z,24.1
2018-09-05T07:12:23.676Z,24.1
2018-09-05T07:13:13.495Z,24.1
2018-09-05T07:14:03.442Z,24.1
2018-09-05T07:14:53.628Z,24.2
2018-09-05T07:15:43.213Z,24.2
2018-09-05T07:16:33.480Z,24.2
2018-09-05T07:17:24.506Z,24.1
2018-09-05T07:18:13.915Z,24.1
2018-09-05T07:19:03.916Z,24.1
2018-09-05T07:19:54.012Z,24.1
2018-09-05T07:20:44.070Z,24.2
2018-09-05T07:21:36.931Z,24.1
2018-09-05T07:22:23.957Z,24.1
2018-09-05T07:23:14.604Z,24.2
2018-09-05T07:24:04.034Z,24.1
2018-09-05T07:24:55.538Z,24.1
2018-09-05T07:25:43.877Z,24.2
2018-09-05T07:26:34.530Z,24.1
2018-09-05T07:27:24.492Z,24.1
2018-09-05T07:28:14.039Z,24.1
2018-09-05T07:29:04.455Z,24.1
2018-09-05T07:29:53.025Z,24.2
2018-09-05T07:30:45.733Z,24.2
2018-09-05T07:31:34.659Z,24.1
2018-09-05T07:32:24.691Z,24.1
2018-09-05T07:33:15.016Z,24.1
2018-09-05T07:34:04.819Z,24.1
2018-09-05T07:34:55.211Z,24.1
2018-09-05T07:35:46.681Z,24.1
2018-09-05T07:36:34.881Z,24.2
2018-09-05T07:37:25.166Z,24.2
2018-09-05T07:38:16.089Z,24.1
2018-09-05T07:39:05.504Z,24.1
2018-09-05T07:39:56.076Z,24.1
2018-09-05T07:40:45.333Z,24.1
2018-09-05T07:41:35.968Z,24.1
2018-09-05T07:42:25.471Z,24.1
2018-09-05T09:15:03.647Z,24.1
2018-09-05T09:15:53.190Z,24.2
2018-09-05T09:16:44.078Z,24.1
2018-09-05T09:17:33.873Z,24.1
2018-09-05T09:18:24.252Z,24.2
2018-09-05T09:19:13.995Z,24.2
2018-09-05T09:20:03.821Z,24.2
2018-09-05T09:20:53.833Z,24.2
2018-09-05T09:21:44.708Z,24.2
2018-09-05T09:22:34.238Z,24.2
2018-09-05T09:23:24.908Z,24.2
2018-09-05T09:24:14.392Z,24.2
2018-09-05T09:25:04.764Z,24.2
2018-09-05T09:25:53.899Z,24.2
2018-09-05T09:26:44.578Z,24.2
2018-09-05T09:27:34.371Z,24.1
2018-09-05T09:28:25.187Z,24.2
2018-09-05T09:29:14.204Z,24.2
2018-09-05T09:30:05.366Z,24.2
2018-09-05T09:30:55.132Z,24.2
2018-09-05T09:31:45.472Z,24.2
2018-09-05T09:32:34.885Z,24.2
2018-09-05T09:33:25.392Z,24.2
2018-09-05T09:34:15.144Z,24.2
2018-09-05T09:35:05.209Z,24.2
2018-09-05T09:35:55.631Z,24.2
2018-09-05T09:36:45.889Z,24.2
2018-09-05T09:37:34.609Z,24.2
2018-09-05T09:38:25.512Z,24.2
2018-09-05T09:39:16.355Z,24.2
2018-09-05T09:40:06.209Z,24.2
2018-09-05T09:40:55.956Z,24.2
2018-09-05T09:41:44.916Z,24.2
2018-09-05T09:42:34.926Z,24.2
2018-09-05T09:43:26.131Z,24.2
2018-09-05T09:44:16.236Z,24.2
2018-09-05T09:45:06.021Z,24.2
2018-09-05T09:45:56.118Z,24.2
2018-09-05T09:46:46.908Z,24.2
2018-09-05T09:47:35.676Z,24.2
2018-09-05T09:48:26.569Z,24.2
2018-09-05T09:49:16.346Z,24.2
2018-09-05T09:50:07.211Z,24.2
2018-09-05T09:50:55.611Z,24.2
2018-09-05T09:51:45.958Z,24.2
2018-09-05T09:52:36.349Z,24.2
2018-09-05T09:53:25.928Z,24.2
2018-09-05T09:54:16.126Z,24.2
2018-09-05T09:55:06.250Z,24.2
2018-09-05T09:55:56.776Z,24.2
2018-09-05T09:56:47.001Z,24.2
2018-09-05T09:57:36.693Z,24.2
2018-09-05T09:58:26.797Z,24.2
2018-09-05T09:59:16.932Z,24.2
2018-09-05T10:00:07.467Z,24.2
2018-09-05T10:00:56.717Z,24.2
2018-09-05T10:01:47.000Z,24.2
2018-09-05T10:02:36.112Z,24.2
2018-09-05T10:03:29.229Z,24.2
2018-09-05T10:04:17.537Z,24.2
2018-09-05T10:05:07.597Z,24.2
2018-09-05T10:05:57.662Z,24.2
2018-09-05T10:06:48.447Z,24.2
2018-09-05T10:07:37.322Z,24.2
2018-09-05T10:08:28.390Z,24.2
2018-09-05T10:09:17.610Z,24.2
2018-09-05T10:10:12.660Z,24.2
2018-09-05T10:10:58.064Z,24.2
2018-09-05T10:11:48.614Z,24.2
2018-09-05T10:12:38.696Z,24.2
2018-09-05T10:13:28.516Z,24.2
2018-09-05T10:14:18.337Z,24.2
2018-09-05T10:15:08.837Z,24.2
2018-09-05T10:15:58.962Z,24.2
2018-09-05T10:16:49.009Z,24.2
2018-09-05T10:17:38.879Z,24.2
2018-09-05T10:18:28.610Z,24.2
2018-09-05T10:19:18.411Z,24.2
2018-09-05T10:20:08.819Z,24.2
2018-09-05T10:20:59.957Z,24.2
2018-09-05T10:21:48.018Z,24.2
2018-09-05T10:22:40.452Z,24.3
2018-09-05T10:23:28.768Z,24.2
2018-09-05T10:24:19.079Z,24.2
2018-09-05T10:25:09.111Z,24.2
2018-09-05T10:25:59.556Z,24.2
2018-09-05T10:26:48.715Z,24.2
2018-09-05T10:27:39.334Z,24.2
2018-09-05T10:28:29.128Z,24.2
2018-09-05T10:29:19.746Z,24.2
2018-09-05T10:30:09.513Z,24.2
2018-09-05T10:30:59.894Z,24.2
2018-09-05T10:31:50.011Z,24.2
2018-09-05T10:32:39.696Z,24.2
2018-09-05T10:33:29.533Z,24.2
2018-09-05T10:34:19.812Z,24.2
2018-09-05T10:35:09.336Z,24.2
2018-09-05T10:35:59.701Z,24.2
2018-09-05T10:36:49.170Z,24.2
2018-09-05T10:37:39.828Z,24.2
2018-09-05T10:38:30.240Z,24.2
2018-09-05T10:39:20.023Z,24.2
2018-09-05T10:40:10.545Z,24.2
2018-09-05T10:41:00.350Z,24.2
2018-09-05T10:41:50.405Z,24.2
2018-09-05T10:42:40.778Z,24.2
2018-09-05T10:43:31.342Z,24.2
2018-09-05T10:44:22.438Z,24.2
2018-09-05T10:45:10.124Z,24.2
2018-09-05T10:46:00.764Z,24.2
2018-09-05T10:46:50.250Z,24.2
2018-09-05T10:47:40.590Z,24.2
2018-09-05T10:48:30.989Z,24.2
2018-09-05T10:49:20.746Z,24.2
2018-09-05T10:50:10.775Z,24.2
2018-09-05T10:51:01.138Z,24.2
2018-09-05T10:51:52.461Z,24.3
2018-09-05T10:52:41.482Z,24.2
2018-09-05T10:53:32.151Z,24.2
2018-09-05T10:54:21.217Z,24.3
2018-09-05T10:55:11.780Z,24.2
2018-09-05T10:56:02.117Z,24.2
2018-09-05T10:56:51.034Z,24.2
2018-09-05T10:57:41.600Z,24.3
2018-09-05T10:58:31.769Z,24.3
2018-09-05T10:59:21.488Z,24.2
2018-09-05T11:00:12.151Z,24.2
2018-09-05T11:01:01.893Z,24.2
2018-09-05T11:01:52.586Z,24.2
2018-09-05T11:02:42.299Z,24.2
2018-09-05T11:03:32.338Z,24.2
2018-09-05T11:04:22.899Z,24.2
2018-09-05T11:05:12.244Z,24.2
2018-09-05T11:06:02.586Z,24.3
2018-09-05T11:06:52.161Z,24.2
2018-09-05T11:07:42.155Z,24.3
2018-09-05T11:08:33.039Z,24.2
2018-09-05T11:09:22.639Z,24.2
2018-09-05T11:10:12.378Z,24.3
2018-09-05T11:11:03.070Z,24.3
2018-09-05T11:11:53.058Z,24.2
2018-09-05T11:12:42.798Z,24.2
2018-09-05T11:13:32.643Z,24.3
2018-09-05T11:14:22.976Z,24.2
2018-09-05T11:15:12.500Z,24.2
2018-09-05T11:16:02.238Z,24.2
2018-09-05T11:16:52.576Z,24.3
2018-09-05T11:17:44.100Z,24.2
2018-09-05T11:18:33.365Z,24.2
2018-09-05T11:19:23.320Z,24.2
2018-09-05T11:20:13.143Z,24.2
2018-09-05T11:21:03.780Z,24.2
2018-09-05T11:21:53.630Z,24.2
2018-09-05T11:22:43.625Z,24.3
2018-09-05T11:23:33.412Z,24.2
2018-09-05T11:24:23.421Z,24.2
2018-09-05T11:25:14.387Z,24.2
2018-09-05T11:26:03.872Z,24.2
2018-09-05T11:26:54.231Z,24.2
2018-09-05T11:27:44.927Z,24.2
2018-09-05T11:28:33.502Z,24.2
2018-09-05T11:29:24.145Z,24.2
2018-09-05T11:30:13.959Z,24.2
2018-09-05T11:31:04.527Z,24.2
2018-09-05T11:31:54.354Z,24.2
2018-09-05T11:32:44.081Z,24.2
2018-09-05T11:33:34.701Z,24.2
2018-09-05T11:34:25.304Z,24.3
2018-09-05T11:35:14.641Z,24.2
2018-09-05T11:36:04.926Z,24.3
2018-09-05T11:36:55.496Z,24.2
2018-09-05T11:37:44.774Z,24.2
2018-09-05T11:38:35.381Z,24.2
2018-09-05T11:39:24.608Z,24.2
2018-09-05T11:40:14.381Z,24.2
2018-09-05T11:41:04.768Z,24.3
2018-09-05T11:41:54.576Z,24.2
2018-09-05T11:42:45.112Z,24.3
2018-09-05T11:43:35.488Z,24.2
2018-09-05T11:44:25.258Z,24.2
2018-09-05T11:45:15.605Z,24.2
2018-09-05T11:46:05.711Z,24.3
2018-09-05T11:46:55.229Z,24.2
2018-09-05T11:47:46.514Z,24.2
2018-09-05T11:48:35.950Z,24.3
2018-09-05T11:49:25.467Z,24.2
2018-09-05T11:50:15.995Z,24.2
2018-09-05T11:51:05.847Z,24.2
2018-09-05T11:51:55.992Z,24.2
2018-09-05T11:52:45.708Z,24.3
2018-09-05T11:53:36.418Z,24.3
2018-09-05T11:54:26.294Z,24.3
2018-09-05T11:55:16.986Z,24.3
2018-09-05T11:56:06.885Z,24.3
2018-09-05T11:56:56.005Z,24.2
2018-09-05T11:57:46.278Z,24.3
2018-09-05T11:58:36.724Z,24.3
2018-09-05T11:59:27.045Z,24.3
2018-09-05T12:00:16.559Z,24.2
2018-09-05T12:01:06.971Z,24.2
2018-09-05T12:01:57.003Z,24.3
2018-09-05T12:02:46.842Z,24.3
2018-09-05T12:03:37.394Z,24.2
2018-09-05T12:04:27.124Z,24.3
2018-09-05T12:05:17.591Z,24.3
2018-09-05T12:06:07.142Z,24.3
2018-09-05T12:06:57.088Z,24.3
2018-09-05T12:07:47.126Z,24.3
2018-09-05T12:08:37.241Z,24.2
2018-09-05T12:09:27.067Z,24.2
2018-09-05T12:10:17.676Z,24.2
2018-09-05T12:11:07.435Z,24.3
2018-09-05T12:11:57.296Z,24.3
2018-09-05T12:12:47.509Z,24.3
2018-09-05T12:13:37.568Z,24.3
2018-09-05T12:14:27.661Z,24.2
2018-09-05T12:15:18.258Z,24.3
2018-09-05T12:16:07.775Z,24.3
2018-09-05T12:16:58.160Z,24.2
2018-09-05T12:17:48.451Z,24.3
2018-09-05T12:18:39.007Z,24.2
2018-09-05T12:19:28.348Z,24.3
2018-09-05T12:20:18.763Z,24.3
2018-09-05T12:21:08.311Z,24.3
2018-09-05T12:21:58.285Z,24.3
2018-09-05T12:22:48.866Z,24.3
2018-09-05T12:23:38.032Z,24.3
2018-09-05T12:24:28.198Z,24.3
2018-09-05T12:25:18.220Z,24.3
2018-09-05T12:26:08.853Z,24.3
2018-09-05T12:26:58.388Z,24.3
2018-09-05T12:27:48.150Z,24.3
2018-09-05T12:28:39.020Z,24.3
2018-09-05T12:29:29.679Z,24.3
2018-09-05T12:30:18.089Z,24.3
2018-09-05T12:31:08.990Z,24.3
2018-09-05T12:31:58.990Z,24.3
2018-09-05T12:32:49.667Z,24.2
2018-09-05T12:33:38.827Z,24.3
2018-09-05T12:34:29.492Z,24.3
2018-09-05T12:35:18.597Z,24.3
2018-09-05T12:36:09.034Z,24.3
2018-09-05T12:36:59.202Z,24.3
2018-09-05T12:37:50.013Z,24.3
2018-09-05T12:38:39.236Z,24.3
2018-09-05T12:39:29.888Z,24.3
2018-09-05T12:40:19.389Z,24.3
2018-09-05T12:41:10.039Z,24.2
2018-09-05T12:41:59.807Z,24.3
2018-09-05T12:42:49.856Z,24.3
2018-09-05T12:43:39.355Z,24.3
2018-09-05T12:44:29.726Z,24.3
2018-09-05T12:45:20.369Z,24.3
2018-09-05T12:46:10.364Z,24.3
2018-09-05T12:47:00.178Z,24.3
2018-09-05T12:47:50.846Z,24.3
2018-09-05T12:48:39.751Z,24.3
2018-09-05T12:49:30.087Z,24.3
2018-09-05T12:50:20.808Z,24.3
2018-09-05T12:51:09.748Z,24.3
2018-09-05T12:52:00.851Z,24.3
2018-09-05T12:52:50.618Z,24.3
2018-09-05T12:53:40.423Z,24.3
2018-09-05T12:54:31.066Z,24.3
2018-09-05T12:55:21.368Z,24.3
2018-09-05T12:56:11.186Z,24.3
2018-09-05T12:57:01.263Z,24.3
2018-09-05T12:57:50.993Z,24.3
2018-09-05T12:58:41.376Z,24.3
2018-09-05T12:59:32.256Z,24.3
2018-09-05T13:00:21.063Z,24.3
2018-09-05T13:01:11.880Z,24.3
2018-09-05T13:02:01.028Z,24.3
2018-09-05T13:02:51.427Z,24.3
2018-09-05T13:03:41.993Z,24.3
2018-09-05T13:04:31.887Z,24.3
2018-09-05T13:05:22.379Z,24.3
2018-09-05T13:06:12.280Z,24.3
2018-09-05T13:07:02.390Z,24.3
2018-09-05T13:07:51.680Z,24.3
2018-09-05T13:08:42.207Z,24.3
2018-09-05T13:09:32.538Z,24.3
2018-09-05T13:10:22.872Z,24.3
2018-09-05T13:11:12.104Z,24.3
2018-09-05T13:12:02.772Z,24.3
2018-09-05T13:12:52.407Z,24.3
2018-09-05T13:13:42.619Z,24.3
2018-09-05T13:14:31.241Z,24.3